sensor_id;sensor_type;location;lat;lon;timestamp;temperature;humidity
25192;DHT22;13143;50.924;5.320;2022-12-18T00:00:46;-1.00;99.90
25192;DHT22;13143;50.924;5.320;2022-12-18T00:03:14;-1.00;99.90
25192;DHT22;13143;50.924;5.320;2022-12-18T00:05:51;-1.00;99.90
25192;DHT22;13143;50.924;5.320;2022-12-18T00:08:17;-1.00;99.90
25192;DHT22;13143;50.924;5.320;2022-12-18T00:10:43;-1.00;99.90
25192;DHT22;13143;50.924;5.320;2022-12-18T00:13:10;-1.00;99.90
25192;DHT22;13143;50.924;5.320;2022-12-18T00:15:36;-1.10;99.90
25192;DHT22;13143;50.924;5.320;2022-12-18T00:18:02;-1.10;99.90
25192;DHT22;13143;50.924;5.320;2022-12-18T00:20:28;-1.10;99.90
25192;DHT22;13143;50.924;5.320;2022-12-18T00:22:54;-1.00;99.90
25192;DHT22;13143;50.924;5.320;2022-12-18T00:25:20;-1.10;99.90
25192;DHT22;13143;50.924;5.320;2022-12-18T00:27:45;-1.10;99.90
25192;DHT22;13143;50.924;5.320;2022-12-18T00:30:11;-1.10;99.90
25192;DHT22;13143;50.924;5.320;2022-12-18T00:32:37;-1.10;99.90
25192;DHT22;13143;50.924;5.320;2022-12-18T00:35:04;-1.10;99.90
25192;DHT22;13143;50.924;5.320;2022-12-18T00:37:29;-1.10;99.90
25192;DHT22;13143;50.924;5.320;2022-12-18T00:39:55;-1.10;99.90
25192;DHT22;13143;50.924;5.320;2022-12-18T00:42:20;-1.10;99.90
25192;DHT22;13143;50.924;5.320;2022-12-18T00:45:05;-1.10;99.90
25192;DHT22;13143;50.924;5.320;2022-12-18T00:47:31;-1.10;99.90
25192;DHT22;13143;50.924;5.320;2022-12-18T00:49:57;-1.20;99.90
25192;DHT22;13143;50.924;5.320;2022-12-18T00:52:22;-1.20;99.90
25192;DHT22;13143;50.924;5.320;2022-12-18T00:54:48;-1.20;99.90
25192;DHT22;13143;50.924;5.320;2022-12-18T00:57:13;-1.20;99.90
25192;DHT22;13143;50.924;5.320;2022-12-18T00:59:39;-1.20;99.90
25192;DHT22;13143;50.924;5.320;2022-12-18T01:02:04;-1.20;99.90
25192;DHT22;13143;50.924;5.320;2022-12-18T01:04:33;-1.20;99.90
25192;DHT22;13143;50.924;5.320;2022-12-18T01:06:59;-1.20;99.90
25192;DHT22;13143;50.924;5.320;2022-12-18T01:09:25;-1.20;99.90
25192;DHT22;13143;50.924;5.320;2022-12-18T01:11:51;-1.20;99.90
25192;DHT22;13143;50.924;5.320;2022-12-18T01:14:17;-1.20;99.90
25192;DHT22;13143;50.924;5.320;2022-12-18T01:16:43;-1.20;99.90
25192;DHT22;13143;50.924;5.320;2022-12-18T01:19:08;-1.30;99.90
25192;DHT22;13143;50.924;5.320;2022-12-18T01:21:34;-1.30;99.90
25192;DHT22;13143;50.924;5.320;2022-12-18T01:23:59;-1.30;99.90
25192;DHT22;13143;50.924;5.320;2022-12-18T01:26:26;-1.30;99.90
25192;DHT22;13143;50.924;5.320;2022-12-18T01:28:55;-1.30;99.90
25192;DHT22;13143;50.924;5.320;2022-12-18T01:31:27;-1.30;99.90
25192;DHT22;13143;50.924;5.320;2022-12-18T01:33:53;-1.30;99.90
25192;DHT22;13143;50.924;5.320;2022-12-18T01:38:47;-1.30;99.90
25192;DHT22;13143;50.924;5.320;2022-12-18T01:41:15;-1.30;99.90
25192;DHT22;13143;50.924;5.320;2022-12-18T01:46:20;-1.40;99.90
25192;DHT22;13143;50.924;5.320;2022-12-18T01:48:52;-1.40;99.90
25192;DHT22;13143;50.924;5.320;2022-12-18T01:51:19;-1.40;99.90
25192;DHT22;13143;50.924;5.320;2022-12-18T01:53:47;-1.40;99.90
25192;DHT22;13143;50.924;5.320;2022-12-18T01:56:15;-1.40;99.90
25192;DHT22;13143;50.924;5.320;2022-12-18T02:01:12;-1.40;99.90
25192;DHT22;13143;50.924;5.320;2022-12-18T02:03:41;-1.40;99.90
25192;DHT22;13143;50.924;5.320;2022-12-18T02:06:29;-1.40;99.90
25192;DHT22;13143;50.924;5.320;2022-12-18T02:09:17;-1.40;99.90
25192;DHT22;13143;50.924;5.320;2022-12-18T02:14:58;-1.50;99.90
25192;DHT22;13143;50.924;5.320;2022-12-18T02:17:41;-1.50;99.90
25192;DHT22;13143;50.924;5.320;2022-12-18T02:28:31;-1.60;99.90
25192;DHT22;13143;50.924;5.320;2022-12-18T02:31:00;-1.60;99.90
25192;DHT22;13143;50.924;5.320;2022-12-18T02:33:27;-1.60;99.90
25192;DHT22;13143;50.924;5.320;2022-12-18T02:35:55;-1.60;99.90
25192;DHT22;13143;50.924;5.320;2022-12-18T02:38:23;-1.60;99.90
25192;DHT22;13143;50.924;5.320;2022-12-18T02:40:51;-1.60;99.90
25192;DHT22;13143;50.924;5.320;2022-12-18T02:43:19;-1.60;99.90
25192;DHT22;13143;50.924;5.320;2022-12-18T02:45:57;-1.70;99.90
25192;DHT22;13143;50.924;5.320;2022-12-18T02:48:30;-1.70;99.90
25192;DHT22;13143;50.924;5.320;2022-12-18T02:51:04;-1.70;99.90
25192;DHT22;13143;50.924;5.320;2022-12-18T02:53:42;-1.70;99.90
25192;DHT22;13143;50.924;5.320;2022-12-18T02:58:47;-1.70;99.90
25192;DHT22;13143;50.924;5.320;2022-12-18T03:01:43;-1.80;99.90
25192;DHT22;13143;50.924;5.320;2022-12-18T03:04:38;-1.80;99.90
25192;DHT22;13143;50.924;5.320;2022-12-18T03:07:21;-1.80;99.90
25192;DHT22;13143;50.924;5.320;2022-12-18T03:09:50;-1.80;99.90
25192;DHT22;13143;50.924;5.320;2022-12-18T03:12:46;-1.80;99.90
25192;DHT22;13143;50.924;5.320;2022-12-18T03:15:42;-1.90;99.90
25192;DHT22;13143;50.924;5.320;2022-12-18T03:18:30;-1.80;99.90
25192;DHT22;13143;50.924;5.320;2022-12-18T03:21:02;-1.80;99.90
25192;DHT22;13143;50.924;5.320;2022-12-18T03:23:32;-1.90;99.90
25192;DHT22;13143;50.924;5.320;2022-12-18T03:26:03;-1.90;99.90
25192;DHT22;13143;50.924;5.320;2022-12-18T03:28:32;-1.90;99.90
25192;DHT22;13143;50.924;5.320;2022-12-18T03:31:00;-1.90;99.90
25192;DHT22;13143;50.924;5.320;2022-12-18T03:33:52;-1.90;99.90
25192;DHT22;13143;50.924;5.320;2022-12-18T03:36:17;-1.90;99.90
25192;DHT22;13143;50.924;5.320;2022-12-18T03:38:43;-1.90;99.90
25192;DHT22;13143;50.924;5.320;2022-12-18T03:41:35;-1.90;99.90
25192;DHT22;13143;50.924;5.320;2022-12-18T03:46:52;-2.00;99.90
25192;DHT22;13143;50.924;5.320;2022-12-18T03:49:35;-2.00;99.90
25192;DHT22;13143;50.924;5.320;2022-12-18T03:52:09;-2.00;99.90
25192;DHT22;13143;50.924;5.320;2022-12-18T03:54:36;-2.00;99.90
25192;DHT22;13143;50.924;5.320;2022-12-18T03:57:09;-2.00;99.90
25192;DHT22;13143;50.924;5.320;2022-12-18T03:59:37;-2.00;99.90
25192;DHT22;13143;50.924;5.320;2022-12-18T04:02:06;-2.00;99.90
25192;DHT22;13143;50.924;5.320;2022-12-18T04:04:34;-2.00;99.90
25192;DHT22;13143;50.924;5.320;2022-12-18T04:07:01;-2.00;99.90
25192;DHT22;13143;50.924;5.320;2022-12-18T04:09:28;-2.00;99.90
25192;DHT22;13143;50.924;5.320;2022-12-18T04:11:55;-2.00;99.90
25192;DHT22;13143;50.924;5.320;2022-12-18T04:14:20;-2.00;99.90
25192;DHT22;13143;50.924;5.320;2022-12-18T04:16:46;-2.00;99.90
25192;DHT22;13143;50.924;5.320;2022-12-18T04:19:12;-2.00;99.90
25192;DHT22;13143;50.924;5.320;2022-12-18T04:21:37;-2.00;99.90
25192;DHT22;13143;50.924;5.320;2022-12-18T04:24:03;-2.10;99.90
25192;DHT22;13143;50.924;5.320;2022-12-18T04:26:29;-2.00;99.90
25192;DHT22;13143;50.924;5.320;2022-12-18T04:28:54;-2.10;99.90
25192;DHT22;13143;50.924;5.320;2022-12-18T04:31:21;-2.10;99.90
25192;DHT22;13143;50.924;5.320;2022-12-18T04:33:47;-2.10;99.90
25192;DHT22;13143;50.924;5.320;2022-12-18T04:36:12;-2.10;99.90
25192;DHT22;13143;50.924;5.320;2022-12-18T04:38:38;-2.10;99.90
25192;DHT22;13143;50.924;5.320;2022-12-18T04:41:04;-2.10;99.90
25192;DHT22;13143;50.924;5.320;2022-12-18T04:43:29;-2.10;99.90
25192;DHT22;13143;50.924;5.320;2022-12-18T04:46:07;-2.10;99.90
25192;DHT22;13143;50.924;5.320;2022-12-18T04:48:34;-2.20;99.90
25192;DHT22;13143;50.924;5.320;2022-12-18T04:51:00;-2.10;99.90
25192;DHT22;13143;50.924;5.320;2022-12-18T04:53:25;-2.20;99.90
25192;DHT22;13143;50.924;5.320;2022-12-18T04:56:05;-2.20;99.90
25192;DHT22;13143;50.924;5.320;2022-12-18T04:58:31;-2.20;99.90
25192;DHT22;13143;50.924;5.320;2022-12-18T05:00:56;-2.20;99.90
25192;DHT22;13143;50.924;5.320;2022-12-18T05:03:22;-2.20;99.90
25192;DHT22;13143;50.924;5.320;2022-12-18T05:05:51;-2.20;99.90
25192;DHT22;13143;50.924;5.320;2022-12-18T05:08:17;-2.20;99.90
25192;DHT22;13143;50.924;5.320;2022-12-18T05:10:43;-2.20;99.90
25192;DHT22;13143;50.924;5.320;2022-12-18T05:13:09;-2.20;99.90
25192;DHT22;13143;50.924;5.320;2022-12-18T05:15:35;-2.30;99.90
25192;DHT22;13143;50.924;5.320;2022-12-18T05:18:01;-2.30;99.90
25192;DHT22;13143;50.924;5.320;2022-12-18T05:20:27;-2.30;99.90
25192;DHT22;13143;50.924;5.320;2022-12-18T05:22:53;-2.30;99.90
25192;DHT22;13143;50.924;5.320;2022-12-18T05:25:19;-2.30;99.90
25192;DHT22;13143;50.924;5.320;2022-12-18T05:27:45;-2.30;99.90
25192;DHT22;13143;50.924;5.320;2022-12-18T05:30:12;-2.40;99.90
25192;DHT22;13143;50.924;5.320;2022-12-18T05:32:38;-2.30;99.90
25192;DHT22;13143;50.924;5.320;2022-12-18T05:35:05;-2.30;99.90
25192;DHT22;13143;50.924;5.320;2022-12-18T05:37:31;-2.30;99.90
25192;DHT22;13143;50.924;5.320;2022-12-18T05:39:57;-2.40;99.90
25192;DHT22;13143;50.924;5.320;2022-12-18T05:42:22;-2.40;99.90
25192;DHT22;13143;50.924;5.320;2022-12-18T05:44:48;-2.40;99.90
25192;DHT22;13143;50.924;5.320;2022-12-18T05:47:14;-2.40;99.90
25192;DHT22;13143;50.924;5.320;2022-12-18T05:49:39;-2.40;99.90
25192;DHT22;13143;50.924;5.320;2022-12-18T05:52:05;-2.40;99.90
25192;DHT22;13143;50.924;5.320;2022-12-18T05:54:30;-2.40;99.90
25192;DHT22;13143;50.924;5.320;2022-12-18T05:56:57;-2.40;99.90
25192;DHT22;13143;50.924;5.320;2022-12-18T05:59:22;-2.40;99.90
25192;DHT22;13143;50.924;5.320;2022-12-18T06:01:48;-2.40;99.90
25192;DHT22;13143;50.924;5.320;2022-12-18T06:04:14;-2.40;99.90
25192;DHT22;13143;50.924;5.320;2022-12-18T06:06:40;-2.50;99.90
25192;DHT22;13143;50.924;5.320;2022-12-18T06:09:05;-2.40;99.90
25192;DHT22;13143;50.924;5.320;2022-12-18T06:11:34;-2.40;99.90
25192;DHT22;13143;50.924;5.320;2022-12-18T06:14:00;-2.50;99.90
25192;DHT22;13143;50.924;5.320;2022-12-18T06:16:30;-2.50;99.90
25192;DHT22;13143;50.924;5.320;2022-12-18T06:19:00;-2.50;99.90
25192;DHT22;13143;50.924;5.320;2022-12-18T06:21:28;-2.50;99.90
25192;DHT22;13143;50.924;5.320;2022-12-18T06:23:53;-2.50;99.90
25192;DHT22;13143;50.924;5.320;2022-12-18T06:26:19;-2.50;99.90
25192;DHT22;13143;50.924;5.320;2022-12-18T06:28:45;-2.50;99.90
25192;DHT22;13143;50.924;5.320;2022-12-18T06:31:11;-2.50;99.90
25192;DHT22;13143;50.924;5.320;2022-12-18T06:33:38;-2.50;99.90
25192;DHT22;13143;50.924;5.320;2022-12-18T06:36:09;-2.50;99.90
25192;DHT22;13143;50.924;5.320;2022-12-18T06:38:37;-2.50;99.90
25192;DHT22;13143;50.924;5.320;2022-12-18T06:41:10;-2.50;99.90
25192;DHT22;13143;50.924;5.320;2022-12-18T06:43:36;-2.60;99.90
25192;DHT22;13143;50.924;5.320;2022-12-18T06:46:03;-2.50;99.90
25192;DHT22;13143;50.924;5.320;2022-12-18T06:48:29;-2.60;99.90
25192;DHT22;13143;50.924;5.320;2022-12-18T06:50:54;-2.60;99.90
25192;DHT22;13143;50.924;5.320;2022-12-18T06:53:20;-2.60;99.90
25192;DHT22;13143;50.924;5.320;2022-12-18T06:55:46;-2.60;99.90
25192;DHT22;13143;50.924;5.320;2022-12-18T06:58:11;-2.60;99.90
25192;DHT22;13143;50.924;5.320;2022-12-18T07:00:37;-2.60;99.90
25192;DHT22;13143;50.924;5.320;2022-12-18T07:03:03;-2.60;99.90
25192;DHT22;13143;50.924;5.320;2022-12-18T07:05:29;-2.60;99.90
25192;DHT22;13143;50.924;5.320;2022-12-18T07:07:54;-2.60;99.90
25192;DHT22;13143;50.924;5.320;2022-12-18T07:10:20;-2.60;99.90
25192;DHT22;13143;50.924;5.320;2022-12-18T07:12:45;-2.60;99.90
25192;DHT22;13143;50.924;5.320;2022-12-18T07:15:11;-2.60;99.90
25192;DHT22;13143;50.924;5.320;2022-12-18T07:17:37;-2.60;99.90
25192;DHT22;13143;50.924;5.320;2022-12-18T07:20:03;-2.60;99.90
25192;DHT22;13143;50.924;5.320;2022-12-18T07:22:29;-2.70;99.90
25192;DHT22;13143;50.924;5.320;2022-12-18T07:24:55;-2.70;99.90
25192;DHT22;13143;50.924;5.320;2022-12-18T07:27:21;-2.70;99.90
25192;DHT22;13143;50.924;5.320;2022-12-18T07:29:47;-2.70;99.90
25192;DHT22;13143;50.924;5.320;2022-12-18T07:32:12;-2.70;99.90
25192;DHT22;13143;50.924;5.320;2022-12-18T07:34:38;-2.70;99.90
25192;DHT22;13143;50.924;5.320;2022-12-18T07:37:03;-2.70;99.90
25192;DHT22;13143;50.924;5.320;2022-12-18T07:39:29;-2.70;99.90
25192;DHT22;13143;50.924;5.320;2022-12-18T07:41:55;-2.80;99.90
25192;DHT22;13143;50.924;5.320;2022-12-18T07:44:39;-2.70;99.90
25192;DHT22;13143;50.924;5.320;2022-12-18T07:47:05;-2.70;99.90
25192;DHT22;13143;50.924;5.320;2022-12-18T07:49:31;-2.80;99.90
25192;DHT22;13143;50.924;5.320;2022-12-18T07:51:57;-2.70;99.90
25192;DHT22;13143;50.924;5.320;2022-12-18T07:54:23;-2.80;99.90
25192;DHT22;13143;50.924;5.320;2022-12-18T07:56:50;-2.80;99.90
25192;DHT22;13143;50.924;5.320;2022-12-18T07:59:16;-2.80;99.90
25192;DHT22;13143;50.924;5.320;2022-12-18T08:01:42;-2.80;99.90
25192;DHT22;13143;50.924;5.320;2022-12-18T08:04:07;-2.80;99.90
25192;DHT22;13143;50.924;5.320;2022-12-18T08:06:33;-2.80;99.90
25192;DHT22;13143;50.924;5.320;2022-12-18T08:08:59;-2.80;99.90
25192;DHT22;13143;50.924;5.320;2022-12-18T08:11:26;-2.80;99.90
25192;DHT22;13143;50.924;5.320;2022-12-18T08:13:52;-2.80;99.90
25192;DHT22;13143;50.924;5.320;2022-12-18T08:16:18;-2.80;99.90
25192;DHT22;13143;50.924;5.320;2022-12-18T08:18:44;-2.80;99.90
25192;DHT22;13143;50.924;5.320;2022-12-18T08:21:11;-2.80;99.90
25192;DHT22;13143;50.924;5.320;2022-12-18T08:23:38;-2.70;99.90
25192;DHT22;13143;50.924;5.320;2022-12-18T08:26:03;-2.80;99.90
25192;DHT22;13143;50.924;5.320;2022-12-18T08:28:29;-2.80;99.90
25192;DHT22;13143;50.924;5.320;2022-12-18T08:30:55;-2.80;99.90
25192;DHT22;13143;50.924;5.320;2022-12-18T08:33:20;-2.80;99.90
25192;DHT22;13143;50.924;5.320;2022-12-18T08:35:46;-2.80;99.90
25192;DHT22;13143;50.924;5.320;2022-12-18T08:38:12;-2.70;99.90
25192;DHT22;13143;50.924;5.320;2022-12-18T08:40:37;-2.70;99.90
25192;DHT22;13143;50.924;5.320;2022-12-18T08:43:03;-2.70;99.90
25192;DHT22;13143;50.924;5.320;2022-12-18T08:45:47;-2.70;99.90
25192;DHT22;13143;50.924;5.320;2022-12-18T08:48:13;-2.70;99.90
25192;DHT22;13143;50.924;5.320;2022-12-18T08:50:38;-2.70;99.90
25192;DHT22;13143;50.924;5.320;2022-12-18T08:53:04;-2.70;99.90
25192;DHT22;13143;50.924;5.320;2022-12-18T08:55:30;-2.70;99.90
25192;DHT22;13143;50.924;5.320;2022-12-18T08:57:55;-2.70;99.90
25192;DHT22;13143;50.924;5.320;2022-12-18T09:00:21;-2.70;99.90
25192;DHT22;13143;50.924;5.320;2022-12-18T09:02:47;-2.70;99.90
25192;DHT22;13143;50.924;5.320;2022-12-18T09:05:12;-2.70;99.90
25192;DHT22;13143;50.924;5.320;2022-12-18T09:07:38;-2.60;99.90
25192;DHT22;13143;50.924;5.320;2022-12-18T09:10:04;-2.60;99.90
25192;DHT22;13143;50.924;5.320;2022-12-18T09:12:30;-2.60;99.90
25192;DHT22;13143;50.924;5.320;2022-12-18T09:14:57;-2.60;99.90
25192;DHT22;13143;50.924;5.320;2022-12-18T09:17:22;-2.60;99.90
25192;DHT22;13143;50.924;5.320;2022-12-18T09:19:48;-2.60;99.90
25192;DHT22;13143;50.924;5.320;2022-12-18T09:22:14;-2.60;99.90
25192;DHT22;13143;50.924;5.320;2022-12-18T09:24:40;-2.50;99.90
25192;DHT22;13143;50.924;5.320;2022-12-18T09:27:05;-2.50;99.90
25192;DHT22;13143;50.924;5.320;2022-12-18T09:29:32;-2.50;99.90
25192;DHT22;13143;50.924;5.320;2022-12-18T09:31:58;-2.50;99.90
25192;DHT22;13143;50.924;5.320;2022-12-18T09:34:23;-2.50;99.90
25192;DHT22;13143;50.924;5.320;2022-12-18T09:36:50;-2.50;99.90
25192;DHT22;13143;50.924;5.320;2022-12-18T09:39:16;-2.50;99.90
25192;DHT22;13143;50.924;5.320;2022-12-18T09:41:52;-2.40;99.90
25192;DHT22;13143;50.924;5.320;2022-12-18T09:47:13;-2.40;99.90
25192;DHT22;13143;50.924;5.320;2022-12-18T09:49:43;-2.30;99.90
25192;DHT22;13143;50.924;5.320;2022-12-18T09:52:37;-2.40;99.90
25192;DHT22;13143;50.924;5.320;2022-12-18T09:57:36;-2.30;99.90
25192;DHT22;13143;50.924;5.320;2022-12-18T10:00:16;-2.30;99.90
25192;DHT22;13143;50.924;5.320;2022-12-18T10:02:43;-2.30;99.90
25192;DHT22;13143;50.924;5.320;2022-12-18T10:05:15;-2.20;99.90
25192;DHT22;13143;50.924;5.320;2022-12-18T10:08:04;-2.20;99.90
25192;DHT22;13143;50.924;5.320;2022-12-18T10:15:58;-2.10;99.90
25192;DHT22;13143;50.924;5.320;2022-12-18T10:21:32;-2.10;99.90
25192;DHT22;13143;50.924;5.320;2022-12-18T10:26:34;-2.00;99.90
25192;DHT22;13143;50.924;5.320;2022-12-18T10:29:00;-2.00;99.90
25192;DHT22;13143;50.924;5.320;2022-12-18T10:31:26;-2.00;99.90
25192;DHT22;13143;50.924;5.320;2022-12-18T10:33:55;-1.90;99.90
25192;DHT22;13143;50.924;5.320;2022-12-18T10:36:20;-1.90;99.90
25192;DHT22;13143;50.924;5.320;2022-12-18T10:38:46;-1.90;99.90
25192;DHT22;13143;50.924;5.320;2022-12-18T10:43:51;-1.80;99.90
25192;DHT22;13143;50.924;5.320;2022-12-18T10:46:34;-1.80;99.90
25192;DHT22;13143;50.924;5.320;2022-12-18T10:49:00;-1.80;99.90
25192;DHT22;13143;50.924;5.320;2022-12-18T10:51:34;-1.70;99.90
25192;DHT22;13143;50.924;5.320;2022-12-18T10:54:05;-1.80;99.90
25192;DHT22;13143;50.924;5.320;2022-12-18T10:56:33;-1.70;99.90
25192;DHT22;13143;50.924;5.320;2022-12-18T10:59:02;-1.70;99.90
25192;DHT22;13143;50.924;5.320;2022-12-18T11:04:17;-1.60;99.90
25192;DHT22;13143;50.924;5.320;2022-12-18T11:07:04;-1.60;99.90
25192;DHT22;13143;50.924;5.320;2022-12-18T11:09:32;-1.60;99.90
25192;DHT22;13143;50.924;5.320;2022-12-18T11:12:02;-1.50;99.90
25192;DHT22;13143;50.924;5.320;2022-12-18T11:14:33;-1.50;99.90
25192;DHT22;13143;50.924;5.320;2022-12-18T11:17:00;-1.50;99.90
25192;DHT22;13143;50.924;5.320;2022-12-18T11:22:01;-1.50;99.90
25192;DHT22;13143;50.924;5.320;2022-12-18T11:24:33;-1.50;99.90
25192;DHT22;13143;50.924;5.320;2022-12-18T11:27:04;-1.40;99.90
25192;DHT22;13143;50.924;5.320;2022-12-18T11:29:34;-1.40;99.90
25192;DHT22;13143;50.924;5.320;2022-12-18T11:34:46;-1.40;99.90
25192;DHT22;13143;50.924;5.320;2022-12-18T11:37:15;-1.30;99.90
25192;DHT22;13143;50.924;5.320;2022-12-18T11:39:59;-1.30;99.90
25192;DHT22;13143;50.924;5.320;2022-12-18T11:45:28;-1.20;99.90
25192;DHT22;13143;50.924;5.320;2022-12-18T11:48:04;-1.20;99.90
25192;DHT22;13143;50.924;5.320;2022-12-18T11:53:02;-1.20;99.90
25192;DHT22;13143;50.924;5.320;2022-12-18T11:58:44;-1.10;99.90
25192;DHT22;13143;50.924;5.320;2022-12-18T12:40:17;-0.70;99.90
25192;DHT22;13143;50.924;5.320;2022-12-18T12:45:52;-0.60;99.90
25192;DHT22;13143;50.924;5.320;2022-12-18T12:48:43;-0.60;99.90
25192;DHT22;13143;50.924;5.320;2022-12-18T12:53:45;-0.50;99.90
25192;DHT22;13143;50.924;5.320;2022-12-18T12:56:15;-0.50;99.90
25192;DHT22;13143;50.924;5.320;2022-12-18T12:59:01;-0.40;99.90
25192;DHT22;13143;50.924;5.320;2022-12-18T13:07:37;-0.30;99.90
25192;DHT22;13143;50.924;5.320;2022-12-18T13:20:36;-0.20;99.90
25192;DHT22;13143;50.924;5.320;2022-12-18T13:25:51;-0.20;99.90
25192;DHT22;13143;50.924;5.320;2022-12-18T13:28:21;-0.10;99.90
25192;DHT22;13143;50.924;5.320;2022-12-18T13:30:55;-0.10;99.90
25192;DHT22;13143;50.924;5.320;2022-12-18T13:35:51;0.00;99.90
25192;DHT22;13143;50.924;5.320;2022-12-18T13:38:34;-0.10;99.90
25192;DHT22;13143;50.924;5.320;2022-12-18T13:41:26;0.00;99.90
25192;DHT22;13143;50.924;5.320;2022-12-18T13:43:55;0.00;99.90
25192;DHT22;13143;50.924;5.320;2022-12-18T13:46:42;0.10;99.90
25192;DHT22;13143;50.924;5.320;2022-12-18T13:49:25;0.10;99.90
25192;DHT22;13143;50.924;5.320;2022-12-18T13:51:53;0.10;99.90
25192;DHT22;13143;50.924;5.320;2022-12-18T13:54:21;0.10;99.90
25192;DHT22;13143;50.924;5.320;2022-12-18T13:56:49;0.20;99.90
25192;DHT22;13143;50.924;5.320;2022-12-18T13:59:21;0.20;99.90
25192;DHT22;13143;50.924;5.320;2022-12-18T14:04:33;0.20;99.90
25192;DHT22;13143;50.924;5.320;2022-12-18T14:07:06;0.20;99.90
25192;DHT22;13143;50.924;5.320;2022-12-18T14:09:39;0.30;99.90
25192;DHT22;13143;50.924;5.320;2022-12-18T14:12:06;0.30;99.90
25192;DHT22;13143;50.924;5.320;2022-12-18T14:14:59;0.30;99.90
25192;DHT22;13143;50.924;5.320;2022-12-18T14:17:25;0.30;99.90
25192;DHT22;13143;50.924;5.320;2022-12-18T14:19:51;0.30;99.90
25192;DHT22;13143;50.924;5.320;2022-12-18T14:22:23;0.40;99.90
25192;DHT22;13143;50.924;5.320;2022-12-18T14:25:26;0.40;99.90
25192;DHT22;13143;50.924;5.320;2022-12-18T14:28:02;0.40;99.90
25192;DHT22;13143;50.924;5.320;2022-12-18T14:30:35;0.40;99.90
25192;DHT22;13143;50.924;5.320;2022-12-18T14:35:39;0.50;99.90
25192;DHT22;13143;50.924;5.320;2022-12-18T14:41:10;0.50;99.90
25192;DHT22;13143;50.924;5.320;2022-12-18T14:43:39;0.50;99.90
25192;DHT22;13143;50.924;5.320;2022-12-18T14:46:42;0.50;99.90
25192;DHT22;13143;50.924;5.320;2022-12-18T14:49:30;0.60;99.90
25192;DHT22;13143;50.924;5.320;2022-12-18T14:54:24;0.70;99.90
25192;DHT22;13143;50.924;5.320;2022-12-18T14:57:23;0.70;99.90
25192;DHT22;13143;50.924;5.320;2022-12-18T14:59:49;0.70;99.90
25192;DHT22;13143;50.924;5.320;2022-12-18T15:05:05;0.70;99.90
25192;DHT22;13143;50.924;5.320;2022-12-18T15:07:50;0.80;99.90
25192;DHT22;13143;50.924;5.320;2022-12-18T15:10:23;0.80;99.90
25192;DHT22;13143;50.924;5.320;2022-12-18T15:17:59;0.90;99.90
25192;DHT22;13143;50.924;5.320;2022-12-18T15:20:25;0.90;99.90
25192;DHT22;13143;50.924;5.320;2022-12-18T15:22:52;1.00;99.90
25192;DHT22;13143;50.924;5.320;2022-12-18T15:25:32;1.00;99.90
25192;DHT22;13143;50.924;5.320;2022-12-18T15:27:59;1.00;99.90
25192;DHT22;13143;50.924;5.320;2022-12-18T15:30:25;1.00;99.90
25192;DHT22;13143;50.924;5.320;2022-12-18T15:32:52;1.00;99.90
25192;DHT22;13143;50.924;5.320;2022-12-18T15:35:37;1.10;99.90
25192;DHT22;13143;50.924;5.320;2022-12-18T15:38:03;1.10;99.90
25192;DHT22;13143;50.924;5.320;2022-12-18T15:40:29;1.10;99.90
25192;DHT22;13143;50.924;5.320;2022-12-18T15:42:55;1.20;99.90
25192;DHT22;13143;50.924;5.320;2022-12-18T15:45:39;1.20;99.90
25192;DHT22;13143;50.924;5.320;2022-12-18T15:48:22;1.20;99.90
25192;DHT22;13143;50.924;5.320;2022-12-18T15:50:52;1.20;99.90
25192;DHT22;13143;50.924;5.320;2022-12-18T15:53:18;1.20;99.90
25192;DHT22;13143;50.924;5.320;2022-12-18T15:55:44;1.30;99.90
25192;DHT22;13143;50.924;5.320;2022-12-18T15:58:28;1.30;99.90
25192;DHT22;13143;50.924;5.320;2022-12-18T16:00:55;1.30;99.90
25192;DHT22;13143;50.924;5.320;2022-12-18T16:03:23;1.30;99.90
25192;DHT22;13143;50.924;5.320;2022-12-18T16:05:48;1.30;99.90
25192;DHT22;13143;50.924;5.320;2022-12-18T16:08:14;1.40;99.90
25192;DHT22;13143;50.924;5.320;2022-12-18T16:10:40;1.40;99.90
25192;DHT22;13143;50.924;5.320;2022-12-18T16:13:09;1.40;99.90
25192;DHT22;13143;50.924;5.320;2022-12-18T16:15:35;1.40;99.90
25192;DHT22;13143;50.924;5.320;2022-12-18T16:18:01;1.40;99.90
25192;DHT22;13143;50.924;5.320;2022-12-18T16:20:26;1.40;99.90
25192;DHT22;13143;50.924;5.320;2022-12-18T16:22:52;1.50;99.90
25192;DHT22;13143;50.924;5.320;2022-12-18T16:25:23;1.50;99.90
25192;DHT22;13143;50.924;5.320;2022-12-18T16:27:50;1.50;99.90
25192;DHT22;13143;50.924;5.320;2022-12-18T16:30:18;1.50;99.90
25192;DHT22;13143;50.924;5.320;2022-12-18T16:32:44;1.50;99.90
25192;DHT22;13143;50.924;5.320;2022-12-18T16:35:11;1.50;99.90
25192;DHT22;13143;50.924;5.320;2022-12-18T16:37:37;1.50;99.90
25192;DHT22;13143;50.924;5.320;2022-12-18T16:40:04;1.60;99.90
25192;DHT22;13143;50.924;5.320;2022-12-18T16:42:29;1.60;99.90
25192;DHT22;13143;50.924;5.320;2022-12-18T16:44:55;1.60;99.90
25192;DHT22;13143;50.924;5.320;2022-12-18T16:47:21;1.60;99.90
25192;DHT22;13143;50.924;5.320;2022-12-18T16:49:46;1.60;99.90
25192;DHT22;13143;50.924;5.320;2022-12-18T16:52:15;1.60;99.90
25192;DHT22;13143;50.924;5.320;2022-12-18T16:54:41;1.60;99.90
25192;DHT22;13143;50.924;5.320;2022-12-18T16:57:10;1.70;99.90
25192;DHT22;13143;50.924;5.320;2022-12-18T16:59:37;1.60;99.90
25192;DHT22;13143;50.924;5.320;2022-12-18T17:02:04;1.70;99.90
25192;DHT22;13143;50.924;5.320;2022-12-18T17:04:30;1.70;99.90
25192;DHT22;13143;50.924;5.320;2022-12-18T17:06:55;1.70;99.90
25192;DHT22;13143;50.924;5.320;2022-12-18T17:09:21;1.70;99.90
25192;DHT22;13143;50.924;5.320;2022-12-18T17:11:50;1.70;99.90
25192;DHT22;13143;50.924;5.320;2022-12-18T17:14:18;1.70;99.90
25192;DHT22;13143;50.924;5.320;2022-12-18T17:16:45;1.70;99.90
25192;DHT22;13143;50.924;5.320;2022-12-18T17:19:11;1.70;99.90
25192;DHT22;13143;50.924;5.320;2022-12-18T17:21:37;1.80;99.90
25192;DHT22;13143;50.924;5.320;2022-12-18T17:24:03;1.80;99.90
25192;DHT22;13143;50.924;5.320;2022-12-18T17:26:28;1.80;99.90
25192;DHT22;13143;50.924;5.320;2022-12-18T17:28:58;1.80;99.90
25192;DHT22;13143;50.924;5.320;2022-12-18T17:31:25;1.80;99.90
25192;DHT22;13143;50.924;5.320;2022-12-18T17:33:52;1.80;99.90
25192;DHT22;13143;50.924;5.320;2022-12-18T17:36:18;1.80;99.90
25192;DHT22;13143;50.924;5.320;2022-12-18T17:38:52;1.80;99.90
25192;DHT22;13143;50.924;5.320;2022-12-18T17:41:18;1.80;99.90
25192;DHT22;13143;50.924;5.320;2022-12-18T17:43:59;1.80;99.90
25192;DHT22;13143;50.924;5.320;2022-12-18T17:46:27;1.80;99.90
25192;DHT22;13143;50.924;5.320;2022-12-18T17:48:57;1.80;99.90
25192;DHT22;13143;50.924;5.320;2022-12-18T17:51:23;1.80;99.90
25192;DHT22;13143;50.924;5.320;2022-12-18T17:53:49;1.90;99.90
25192;DHT22;13143;50.924;5.320;2022-12-18T17:56:17;1.80;99.90
25192;DHT22;13143;50.924;5.320;2022-12-18T17:58:43;1.90;99.90
25192;DHT22;13143;50.924;5.320;2022-12-18T18:01:19;1.90;99.90
25192;DHT22;13143;50.924;5.320;2022-12-18T18:03:45;1.90;99.90
25192;DHT22;13143;50.924;5.320;2022-12-18T18:06:11;1.90;99.90
25192;DHT22;13143;50.924;5.320;2022-12-18T18:08:37;1.90;99.90
25192;DHT22;13143;50.924;5.320;2022-12-18T18:11:11;1.90;99.90
25192;DHT22;13143;50.924;5.320;2022-12-18T18:13:56;1.90;99.90